Time;durP1;ratioP1;P1;durP2;ratioP2;P2;SDS_P1;SDS_P2;PMS_P1;PMS_P2;Temp;Humidity;BMP_temperature;BMP_pressure;BME280_temperature;BME280_humidity;BME280_pressure;Samples;Min_cycle;Max_cycle;Signal;HPM_P1;HPM_P2
2024/02/03 00:00:41;;;;;;;12.18;7.82;;;10.80;94.20;;;;;;5026215;28;20041;-74
2024/02/03 00:03:07;;;;;;;12.25;7.43;;;10.80;94.20;;;;;;5032388;28;20103;-77
2024/02/03 00:05:32;;;;;;;11.93;7.63;;;10.90;94.20;;;;;;5028478;28;20403;-75
2024/02/03 00:07:58;;;;;;;11.18;7.32;;;10.80;94.20;;;;;;5035029;28;20028;-74
2024/02/03 00:10:24;;;;;;;10.23;7.32;;;10.80;94.20;;;;;;5023929;28;20451;-76
2024/02/03 00:12:49;;;;;;;13.15;7.55;;;10.80;94.20;;;;;;5043341;28;20333;-74
2024/02/03 00:15:16;;;;;;;13.60;7.28;;;10.90;94.10;;;;;;5028143;28;20846;-73
2024/02/03 00:17:42;;;;;;;12.30;7.28;;;10.90;94.00;;;;;;5033483;28;20053;-75
2024/02/03 00:20:08;;;;;;;12.80;7.90;;;10.90;93.90;;;;;;5026667;28;20033;-74
2024/02/03 00:22:34;;;;;;;12.05;7.70;;;10.90;94.00;;;;;;5035891;28;20024;-78
2024/02/03 00:25:00;;;;;;;13.48;7.28;;;10.90;93.90;;;;;;5032066;28;20033;-76
2024/02/03 00:27:26;;;;;;;14.43;7.22;;;10.90;93.90;;;;;;5034906;28;20044;-76
2024/02/03 00:29:51;;;;;;;12.98;7.43;;;10.90;94.00;;;;;;5030988;28;20102;-78
2024/02/03 00:32:17;;;;;;;14.05;7.03;;;10.90;94.10;;;;;;5032279;28;20020;-76
2024/02/03 00:34:44;;;;;;;13.25;7.35;;;10.80;94.10;;;;;;5029825;28;20156;-76
2024/02/03 00:37:10;;;;;;;13.40;6.85;;;10.90;94.20;;;;;;5026880;28;20049;-77
2024/02/03 00:39:40;;;;;;;11.75;8.30;;;10.90;94.20;;;;;;5031969;28;20127;-77
2024/02/03 00:42:06;;;;;;;11.63;7.18;;;10.90;94.20;;;;;;5021797;28;20561;-77
2024/02/03 00:44:32;;;;;;;13.80;7.15;;;10.90;94.20;;;;;;5028429;28;20040;-78
2024/02/03 00:46:57;;;;;;;15.82;7.65;;;10.90;94.10;;;;;;5031176;28;20025;-78
2024/02/03 00:49:23;;;;;;;13.15;7.40;;;10.90;94.20;;;;;;5034829;27;20116;-75
2024/02/03 00:51:49;;;;;;;13.65;7.65;;;10.90;94.20;;;;;;5032288;28;20021;-77
2024/02/03 00:54:14;;;;;;;11.13;7.15;;;10.90;94.30;;;;;;5024768;28;20030;-78
2024/02/03 00:56:40;;;;;;;13.25;6.78;;;10.90;94.30;;;;;;5034830;28;20416;-77
2024/02/03 00:59:06;;;;;;;13.45;7.15;;;11.00;94.20;;;;;;5026407;28;20083;-76
2024/02/03 01:01:31;;;;;;;11.95;6.97;;;10.90;94.20;;;;;;5027117;28;20385;-76
2024/02/03 01:03:57;;;;;;;12.10;7.50;;;10.90;94.20;;;;;;5002211;28;20091;-76
2024/02/03 01:06:23;;;;;;;10.82;6.32;;;11.00;94.10;;;;;;5044556;28;20034;-76
2024/02/03 01:08:49;;;;;;;11.32;7.00;;;10.90;94.30;;;;;;5031955;28;20056;-75
2024/02/03 01:11:14;;;;;;;13.15;6.82;;;10.90;94.30;;;;;;5020061;28;20029;-76
2024/02/03 01:13:40;;;;;;;12.77;6.60;;;10.90;94.40;;;;;;5031806;28;20025;-77
2024/02/03 01:16:06;;;;;;;16.02;7.32;;;10.90;94.50;;;;;;5034049;28;20013;-78
2024/02/03 01:18:32;;;;;;;15.95;7.20;;;10.90;94.40;;;;;;5031825;28;20187;-74
2024/02/03 01:20:57;;;;;;;12.68;7.55;;;10.90;94.30;;;;;;5029582;28;20025;-75
2024/02/03 01:23:23;;;;;;;16.38;7.68;;;10.90;94.40;;;;;;5032654;28;20203;-74
2024/02/03 01:25:49;;;;;;;13.73;7.20;;;10.90;94.40;;;;;;5035179;28;20450;-75
2024/02/03 01:28:15;;;;;;;15.93;8.27;;;10.90;94.40;;;;;;5028944;28;20037;-77
2024/02/03 01:30:41;;;;;;;14.65;7.70;;;10.90;94.50;;;;;;5033464;28;20060;-75
2024/02/03 01:33:07;;;;;;;18.05;8.20;;;11.00;94.50;;;;;;5037564;28;20029;-77
2024/02/03 01:35:33;;;;;;;15.90;7.97;;;11.00;94.50;;;;;;5054227;28;20052;-77
2024/02/03 01:37:58;;;;;;;16.67;8.07;;;10.90;94.50;;;;;;5059959;28;20043;-76
2024/02/03 01:40:26;;;;;;;15.10;8.02;;;10.90;94.70;;;;;;5060828;28;20041;-76
2024/02/03 01:43:03;;;;;;;13.68;7.50;;;10.90;94.60;;;;;;5059751;28;20021;-78
2024/02/03 01:45:29;;;;;;;14.13;7.85;;;10.90;94.60;;;;;;5057840;28;20034;-76
2024/02/03 01:47:56;;;;;;;15.85;8.35;;;11.00;94.60;;;;;;5049964;28;20164;-77
2024/02/03 01:50:22;;;;;;;12.85;7.78;;;10.90;94.70;;;;;;5041480;28;20036;-75
2024/02/03 01:52:50;;;;;;;13.93;8.27;;;10.90;94.70;;;;;;5040082;28;20044;-77
2024/02/03 01:55:17;;;;;;;14.60;7.65;;;10.90;94.60;;;;;;5034720;28;20029;-79
2024/02/03 01:57:44;;;;;;;14.55;7.35;;;10.90;94.50;;;;;;5036161;28;20245;-76
2024/02/03 02:00:12;;;;;;;17.45;7.90;;;11.00;94.60;;;;;;5032659;28;20576;-74
2024/02/03 02:02:37;;;;;;;15.30;7.20;;;10.90;94.70;;;;;;5042155;28;20021;-74
2024/02/03 02:05:04;;;;;;;17.05;7.95;;;10.90;94.70;;;;;;5030500;28;20370;-75
2024/02/03 02:07:29;;;;;;;13.30;7.10;;;10.90;94.70;;;;;;5035974;28;20086;-77
2024/02/03 02:09:55;;;;;;;14.15;7.47;;;10.90;94.80;;;;;;5021598;28;20033;-76
2024/02/03 02:12:21;;;;;;;12.05;6.80;;;10.80;94.80;;;;;;5027616;28;20032;-76
2024/02/03 02:14:47;;;;;;;17.40;7.30;;;10.80;94.90;;;;;;5031587;28;20034;-76
2024/02/03 02:17:13;;;;;;;14.45;6.90;;;10.80;94.90;;;;;;5025329;28;20377;-76
2024/02/03 02:19:39;;;;;;;16.75;7.22;;;10.80;94.90;;;;;;5033862;28;20048;-79
2024/02/03 02:22:05;;;;;;;14.25;7.10;;;10.90;94.90;;;;;;5037687;28;20120;-77
2024/02/03 02:24:31;;;;;;;12.52;6.35;;;10.90;94.90;;;;;;5016229;28;20050;-77
2024/02/03 02:26:57;;;;;;;16.92;7.30;;;10.90;94.90;;;;;;5036230;28;20358;-75
2024/02/03 02:29:23;;;;;;;14.52;7.03;;;10.80;94.90;;;;;;5030819;28;20075;-78
2024/02/03 02:31:48;;;;;;;17.70;7.07;;;10.90;94.90;;;;;;5035225;28;20079;-77
2024/02/03 02:34:14;;;;;;;18.45;7.53;;;10.90;94.90;;;;;;5030880;28;20049;-75
2024/02/03 02:36:40;;;;;;;18.58;7.25;;;10.90;94.90;;;;;;5024559;28;20144;-79
2024/02/03 02:39:05;;;;;;;19.38;6.95;;;10.80;94.90;;;;;;5024451;28;20052;-77
2024/02/03 02:41:33;;;;;;;16.88;7.45;;;10.80;95.00;;;;;;5035533;28;20345;-76
2024/02/03 02:43:58;;;;;;;14.32;6.60;;;10.80;95.00;;;;;;5029268;28;20033;-76
2024/02/03 02:46:27;;;;;;;13.60;7.20;;;10.90;95.10;;;;;;5034179;28;20095;-75
2024/02/03 02:48:53;;;;;;;15.07;6.25;;;10.80;95.10;;;;;;5032904;28;20047;-76
2024/02/03 02:51:19;;;;;;;15.65;6.03;;;10.80;95.10;;;;;;5032907;28;20261;-75
2024/02/03 02:53:44;;;;;;;12.93;7.03;;;10.80;95.10;;;;;;5031845;28;20409;-77
2024/02/03 02:56:12;;;;;;;16.05;7.30;;;10.80;95.10;;;;;;5034265;28;20028;-77
2024/02/03 02:58:37;;;;;;;17.27;7.32;;;10.80;95.10;;;;;;5034906;28;20029;-75
2024/02/03 03:01:03;;;;;;;18.42;7.45;;;10.80;95.20;;;;;;5032914;28;20317;-75
2024/02/03 03:03:29;;;;;;;15.25;6.78;;;10.90;95.30;;;;;;5027304;28;20028;-75
2024/02/03 03:05:58;;;;;;;16.58;7.38;;;10.90;95.20;;;;;;5029268;28;20021;-76
2024/02/03 03:08:24;;;;;;;17.75;6.97;;;10.80;95.20;;;;;;5031519;28;20028;-78
2024/02/03 03:10:49;;;;;;;17.27;7.88;;;10.80;95.20;;;;;;5032363;28;20037;-77
2024/02/03 03:13:15;;;;;;;16.15;7.07;;;10.90;95.20;;;;;;5025337;28;20429;-76
2024/02/03 03:15:41;;;;;;;14.50;6.65;;;10.90;95.20;;;;;;5031505;28;20541;-75
2024/02/03 03:18:07;;;;;;;19.20;7.18;;;10.90;95.20;;;;;;5028161;28;20470;-76
2024/02/03 03:20:32;;;;;;;17.35;7.00;;;10.80;95.10;;;;;;5032827;28;20328;-77
2024/02/03 03:22:58;;;;;;;19.17;6.95;;;10.90;95.20;;;;;;5037057;28;20751;-75
2024/02/03 03:25:25;;;;;;;16.60;7.68;;;10.80;95.20;;;;;;5026971;28;21349;-76
2024/02/03 03:27:51;;;;;;;22.40;7.53;;;10.90;95.20;;;;;;5032768;28;20258;-76
2024/02/03 03:30:16;;;;;;;18.83;7.95;;;10.90;95.20;;;;;;5033264;28;20386;-75
2024/02/03 03:32:42;;;;;;;14.25;6.53;;;10.90;95.10;;;;;;5028525;28;20107;-76
2024/02/03 03:35:08;;;;;;;15.55;6.50;;;10.90;95.10;;;;;;5034310;28;20086;-78
2024/02/03 03:37:33;;;;;;;15.60;5.70;;;10.90;95.00;;;;;;5030903;28;20254;-76
2024/02/03 03:39:59;;;;;;;14.43;6.18;;;10.90;95.00;;;;;;5033402;28;20100;-76
2024/02/03 03:42:25;;;;;;;16.40;6.95;;;10.80;95.10;;;;;;5029575;28;20532;-75
2024/02/03 03:44:51;;;;;;;15.48;6.22;;;10.90;95.10;;;;;;5035829;28;20025;-77
2024/02/03 03:47:17;;;;;;;18.88;6.15;;;10.90;95.20;;;;;;5029067;28;20086;-75
2024/02/03 03:49:43;;;;;;;15.38;6.43;;;10.90;95.20;;;;;;5025231;28;20087;-76
2024/02/03 03:52:09;;;;;;;16.90;5.78;;;10.80;95.20;;;;;;5031308;28;20366;-75
2024/02/03 03:54:34;;;;;;;14.90;5.78;;;10.90;95.20;;;;;;5030879;28;20609;-76
2024/02/03 03:57:00;;;;;;;13.77;5.47;;;11.00;95.10;;;;;;5034437;28;20027;-76
2024/02/03 03:59:26;;;;;;;16.20;6.18;;;11.00;94.90;;;;;;5030888;28;20041;-75
2024/02/03 04:01:52;;;;;;;13.88;5.30;;;11.00;94.80;;;;;;5038916;28;20104;-79
2024/02/03 04:04:18;;;;;;;21.13;6.47;;;11.00;94.80;;;;;;5020914;28;20112;-74
2024/02/03 04:06:45;;;;;;;15.68;6.35;;;11.00;94.80;;;;;;5034930;28;20749;-75
2024/02/03 04:09:14;;;;;;;16.88;6.20;;;11.00;94.80;;;;;;5031338;28;20124;-77
2024/02/03 04:11:40;;;;;;;16.85;5.93;;;11.00;94.90;;;;;;5030517;28;20140;-74
2024/02/03 04:14:07;;;;;;;13.63;5.95;;;11.00;94.80;;;;;;5024808;28;20527;-76
2024/02/03 04:16:33;;;;;;;16.20;7.10;;;11.10;94.80;;;;;;5031934;28;20497;-75
2024/02/03 04:19:00;;;;;;;19.77;6.35;;;11.10;94.70;;;;;;5019324;28;20042;-74
2024/02/03 04:21:29;;;;;;;16.92;7.13;;;11.10;94.60;;;;;;5024745;28;20025;-75
2024/02/03 04:23:55;;;;;;;14.70;5.55;;;11.10;94.50;;;;;;5024159;28;20124;-74
2024/02/03 04:26:21;;;;;;;20.45;5.90;;;11.10;94.60;;;;;;5026063;28;20141;-74
2024/02/03 04:28:47;;;;;;;16.70;5.85;;;11.10;94.60;;;;;;5028348;28;20490;-75
2024/02/03 04:31:12;;;;;;;16.98;5.28;;;11.00;94.60;;;;;;5028086;28;20105;-75
2024/02/03 04:33:38;;;;;;;17.00;6.00;;;11.00;94.60;;;;;;5029357;28;20446;-76
2024/02/03 04:36:04;;;;;;;21.58;6.63;;;11.00;94.60;;;;;;5023769;28;20053;-73
2024/02/03 04:38:30;;;;;;;13.95;5.25;;;11.10;94.60;;;;;;5016068;28;20039;-75
2024/02/03 04:40:56;;;;;;;16.13;5.45;;;11.00;94.60;;;;;;5025876;28;20025;-73
2024/02/03 04:43:22;;;;;;;14.00;4.72;;;11.00;94.60;;;;;;5022971;28;20033;-74
2024/02/03 04:45:47;;;;;;;16.52;5.05;;;11.00;94.70;;;;;;5032921;28;20053;-74
2024/02/03 04:48:13;;;;;;;15.70;5.53;;;11.00;94.70;;;;;;5039744;28;20065;-77
2024/02/03 04:50:39;;;;;;;14.65;4.68;;;10.90;94.80;;;;;;5023214;28;20079;-76
2024/02/03 04:53:05;;;;;;;13.90;5.18;;;10.90;94.80;;;;;;5024815;28;20029;-76
2024/02/03 04:55:31;;;;;;;13.70;5.53;;;10.90;94.90;;;;;;5023449;28;20510;-74
2024/02/03 04:57:57;;;;;;;13.98;4.88;;;10.90;95.00;;;;;;5033279;28;20268;-74
2024/02/03 05:00:22;;;;;;;13.48;5.07;;;10.90;95.00;;;;;;5034936;28;20417;-75
2024/02/03 05:02:48;;;;;;;19.10;5.40;;;10.90;95.10;;;;;;5033818;28;20029;-76
2024/02/03 05:05:14;;;;;;;15.70;4.78;;;10.90;95.10;;;;;;5035958;28;20055;-76
2024/02/03 05:07:41;;;;;;;16.55;4.97;;;10.90;95.10;;;;;;5030586;28;20076;-76
2024/02/03 05:10:07;;;;;;;16.30;5.35;;;10.90;95.10;;;;;;5029114;28;20037;-74
2024/02/03 05:12:33;;;;;;;17.33;5.80;;;10.90;95.00;;;;;;5032342;28;20017;-74
2024/02/03 05:14:59;;;;;;;13.15;4.80;;;10.90;95.10;;;;;;5025761;28;20032;-77
2024/02/03 05:17:24;;;;;;;14.55;4.93;;;10.90;95.10;;;;;;5031864;28;20113;-73
2024/02/03 05:19:50;;;;;;;16.65;5.38;;;10.90;95.10;;;;;;5030028;28;20596;-76
2024/02/03 05:22:16;;;;;;;15.48;5.25;;;10.80;95.20;;;;;;5035568;28;20163;-73
2024/02/03 05:24:42;;;;;;;14.20;4.85;;;10.80;95.10;;;;;;5033641;28;20025;-75
2024/02/03 05:27:07;;;;;;;15.07;4.90;;;10.80;95.10;;;;;;5038191;28;20130;-76
2024/02/03 05:29:33;;;;;;;20.38;5.50;;;10.80;95.20;;;;;;5040716;28;20062;-74
2024/02/03 05:31:58;;;;;;;19.35;5.07;;;10.80;95.30;;;;;;5033763;28;20032;-74
2024/02/03 05:34:24;;;;;;;19.30;5.13;;;10.80;95.30;;;;;;5036979;28;20108;-74
2024/02/03 05:36:50;;;;;;;23.27;5.53;;;10.80;95.30;;;;;;5032560;28;20048;-74
2024/02/03 05:39:15;;;;;;;15.00;5.07;;;10.90;95.20;;;;;;5030583;28;20338;-74
2024/02/03 05:41:41;;;;;;;19.30;5.25;;;10.80;95.20;;;;;;5034123;28;20020;-76
2024/02/03 05:44:07;;;;;;;15.13;4.50;;;10.80;95.30;;;;;;5031421;28;20030;-75
2024/02/03 05:46:32;;;;;;;15.95;4.53;;;10.80;95.30;;;;;;5033623;28;20078;-74
2024/02/03 05:48:58;;;;;;;15.52;4.60;;;10.80;95.30;;;;;;5029323;28;20029;-75
2024/02/03 05:51:24;;;;;;;16.08;5.43;;;10.90;95.20;;;;;;5032008;28;20056;-74
2024/02/03 05:53:52;;;;;;;12.73;4.63;;;10.80;95.10;;;;;;5033793;28;20469;-74
2024/02/03 05:56:18;;;;;;;16.35;5.03;;;10.80;95.10;;;;;;5030277;28;20025;-77
2024/02/03 05:58:44;;;;;;;17.20;5.28;;;10.80;95.20;;;;;;5035746;28;20068;-75
2024/02/03 06:01:09;;;;;;;14.70;5.40;;;10.80;95.10;;;;;;5025700;28;20017;-73
2024/02/03 06:03:35;;;;;;;17.25;5.22;;;10.80;95.10;;;;;;5034032;28;20582;-74
2024/02/03 06:06:01;;;;;;;13.55;4.65;;;10.80;95.20;;;;;;5041193;28;20024;-76
2024/02/03 06:08:26;;;;;;;19.35;5.97;;;10.80;95.20;;;;;;5036995;28;20033;-74
2024/02/03 06:10:52;;;;;;;17.92;5.70;;;10.80;95.10;;;;;;5029885;28;20446;-77
2024/02/03 06:13:20;;;;;;;13.55;5.07;;;10.80;95.20;;;;;;5030438;28;20031;-75
2024/02/03 06:15:47;;;;;;;18.20;6.10;;;10.80;95.20;;;;;;5035293;28;20057;-74
2024/02/03 06:18:12;;;;;;;17.67;6.15;;;10.80;95.20;;;;;;5036181;28;20045;-75
2024/02/03 06:20:38;;;;;;;15.57;6.43;;;10.80;95.30;;;;;;5031836;28;20049;-76
2024/02/03 06:23:04;;;;;;;19.50;6.30;;;10.70;95.20;;;;;;5033951;28;20014;-74
2024/02/03 06:25:29;;;;;;;16.48;6.60;;;10.80;95.30;;;;;;5028395;28;20506;-74
2024/02/03 06:27:55;;;;;;;21.48;7.30;;;10.80;95.30;;;;;;5039797;28;20027;-75
2024/02/03 06:30:20;;;;;;;20.35;6.68;;;10.80;95.20;;;;;;5023567;28;20033;-76
2024/02/03 06:32:47;;;;;;;26.42;7.38;;;10.80;95.20;;;;;;5028798;28;20021;-76
2024/02/03 06:35:12;;;;;;;17.08;8.00;;;10.80;95.20;;;;;;5030196;28;20026;-75
2024/02/03 06:37:38;;;;;;;23.50;8.02;;;10.80;95.20;;;;;;5035464;28;20359;-75
2024/02/03 06:40:04;;;;;;;20.17;8.27;;;10.80;95.30;;;;;;5032362;28;20359;-74
2024/02/03 06:42:30;;;;;;;20.02;8.32;;;10.80;95.30;;;;;;5044749;28;20121;-75
2024/02/03 06:44:55;;;;;;;21.90;9.38;;;10.80;95.30;;;;;;5029232;28;20108;-75
2024/02/03 06:47:21;;;;;;;20.20;8.68;;;10.80;95.40;;;;;;5041732;28;20502;-76
2024/02/03 06:49:46;;;;;;;19.30;8.02;;;10.80;95.40;;;;;;5031651;28;20121;-75
2024/02/03 06:52:12;;;;;;;22.85;8.70;;;10.80;95.50;;;;;;5031594;28;20497;-77
2024/02/03 06:54:38;;;;;;;22.20;9.48;;;10.80;95.50;;;;;;5030459;27;20072;-77
2024/02/03 06:57:03;;;;;;;22.55;9.13;;;10.80;95.40;;;;;;5033128;28;20036;-75
2024/02/03 06:59:29;;;;;;;26.73;9.25;;;10.80;95.50;;;;;;5039660;28;20661;-74
2024/02/03 07:01:55;;;;;;;25.98;10.50;;;10.80;95.40;;;;;;5032494;28;20522;-76
2024/02/03 07:04:20;;;;;;;22.67;9.43;;;10.80;95.30;;;;;;5033751;28;20040;-75
2024/02/03 07:06:46;;;;;;;22.13;9.23;;;10.80;95.30;;;;;;5033404;28;20059;-75
2024/02/03 07:09:12;;;;;;;25.13;10.30;;;10.80;95.30;;;;;;5029919;28;20311;-75
2024/02/03 07:11:37;;;;;;;27.40;11.65;;;10.80;95.40;;;;;;5033034;28;20481;-75
2024/02/03 07:14:03;;;;;;;29.88;10.77;;;10.80;95.40;;;;;;5040835;28;20470;-77
2024/02/03 07:16:29;;;;;;;20.45;10.52;;;10.90;95.30;;;;;;5055588;28;20021;-77
2024/02/03 07:18:54;;;;;;;21.15;11.10;;;10.80;95.30;;;;;;5047456;28;20049;-77
2024/02/03 07:21:20;;;;;;;22.58;10.70;;;10.80;95.50;;;;;;5049762;28;20139;-76
2024/02/03 07:23:45;;;;;;;23.52;11.68;;;10.80;95.50;;;;;;5043711;28;20385;-75
2024/02/03 07:26:11;;;;;;;24.67;11.27;;;10.80;95.40;;;;;;5050350;28;20076;-75
2024/02/03 07:28:37;;;;;;;20.17;10.43;;;10.80;95.40;;;;;;5061301;28;20036;-75
2024/02/03 07:31:02;;;;;;;22.60;11.15;;;10.90;95.40;;;;;;5043848;28;20024;-75
2024/02/03 07:33:28;;;;;;;21.83;11.18;;;10.90;95.30;;;;;;5032443;28;20260;-73
2024/02/03 07:35:54;;;;;;;23.27;12.00;;;10.80;95.30;;;;;;5025780;28;22286;-73
2024/02/03 07:38:19;;;;;;;23.48;10.95;;;10.90;95.30;;;;;;5028079;28;20518;-73
2024/02/03 07:40:45;;;;;;;22.98;9.43;;;10.80;95.30;;;;;;5025864;28;20500;-73
2024/02/03 07:43:10;;;;;;;19.58;10.55;;;10.80;95.30;;;;;;5026996;28;20082;-73
2024/02/03 07:45:36;;;;;;;22.38;9.90;;;10.80;95.30;;;;;;5034072;28;20552;-74
2024/02/03 07:48:02;;;;;;;20.73;9.80;;;10.90;95.30;;;;;;5032543;28;20441;-73
2024/02/03 07:50:27;;;;;;;24.13;10.38;;;10.90;95.20;;;;;;5024697;28;20032;-73
2024/02/03 07:52:53;;;;;;;21.88;10.10;;;10.90;95.20;;;;;;5030534;28;20024;-73
2024/02/03 07:55:18;;;;;;;21.77;9.13;;;10.90;95.10;;;;;;5027185;28;20036;-73
2024/02/03 07:57:44;;;;;;;22.20;9.38;;;11.00;95.20;;;;;;5028435;28;20040;-73
2024/02/03 08:00:10;;;;;;;20.70;8.95;;;10.90;95.10;;;;;;5029434;28;20107;-73
2024/02/03 08:02:36;;;;;;;24.25;9.30;;;10.90;95.20;;;;;;5034942;28;20104;-73
2024/02/03 08:05:01;;;;;;;23.00;9.27;;;10.90;95.20;;;;;;5026740;28;20086;-74
2024/02/03 08:07:27;;;;;;;20.30;7.95;;;11.00;95.20;;;;;;5030724;28;20025;-73
2024/02/03 08:09:52;;;;;;;21.75;9.45;;;11.00;95.10;;;;;;5026665;28;20033;-74
2024/02/03 08:12:18;;;;;;;18.45;7.93;;;11.00;95.00;;;;;;5031974;28;20024;-73
2024/02/03 08:14:45;;;;;;;20.70;8.02;;;11.10;95.00;;;;;;5033562;28;20052;-74
2024/02/03 08:17:10;;;;;;;18.33;7.63;;;11.10;95.00;;;;;;5027009;28;20739;-74
2024/02/03 08:19:39;;;;;;;22.20;8.20;;;11.10;94.90;;;;;;5036322;28;20131;-74
2024/02/03 08:22:04;;;;;;;20.58;8.38;;;11.10;94.90;;;;;;5027461;28;20046;-75
2024/02/03 08:24:30;;;;;;;21.70;8.05;;;11.10;94.90;;;;;;5036003;28;20041;-74
2024/02/03 08:26:55;;;;;;;27.05;8.73;;;11.10;94.80;;;;;;5028715;28;20026;-74
2024/02/03 08:29:21;;;;;;;18.90;7.18;;;11.10;94.80;;;;;;5045630;28;20575;-74
2024/02/03 08:31:47;;;;;;;20.52;8.48;;;11.10;94.80;;;;;;5033238;28;20013;-74
2024/02/03 08:34:13;;;;;;;23.10;7.45;;;11.10;94.90;;;;;;5027352;28;20302;-74
2024/02/03 08:36:38;;;;;;;23.63;7.80;;;11.10;94.90;;;;;;5032322;28;20045;-74
2024/02/03 08:39:04;;;;;;;21.73;8.25;;;11.10;94.80;;;;;;5030016;28;20045;-75
2024/02/03 08:41:29;;;;;;;22.42;8.50;;;11.10;94.70;;;;;;5033642;28;20141;-74
2024/02/03 08:43:55;;;;;;;17.40;7.53;;;11.10;94.70;;;;;;5035182;28;20082;-73
2024/02/03 08:46:21;;;;;;;22.77;8.45;;;11.10;94.70;;;;;;5033954;28;20026;-74
2024/02/03 08:48:47;;;;;;;26.23;9.20;;;11.10;94.70;;;;;;5027107;28;20075;-74
2024/02/03 08:51:16;;;;;;;25.15;9.25;;;11.10;94.70;;;;;;5028623;28;20052;-74
2024/02/03 08:53:42;;;;;;;23.77;8.15;;;11.10;94.80;;;;;;5028659;28;20104;-74
2024/02/03 08:56:08;;;;;;;22.55;9.80;;;11.10;94.70;;;;;;5037093;28;20021;-74
2024/02/03 08:58:33;;;;;;;20.23;9.07;;;11.10;94.70;;;;;;5022683;28;20029;-74
2024/02/03 09:00:59;;;;;;;18.80;8.13;;;11.10;94.60;;;;;;5039592;28;20031;-74
2024/02/03 09:03:24;;;;;;;21.02;7.60;;;11.10;94.60;;;;;;5027182;28;20051;-73
2024/02/03 09:05:50;;;;;;;22.85;8.23;;;11.10;94.60;;;;;;5031455;28;20064;-74
2024/02/03 09:08:16;;;;;;;21.00;8.73;;;11.10;94.70;;;;;;5032224;28;21190;-74
2024/02/03 09:10:41;;;;;;;26.00;8.30;;;11.10;94.60;;;;;;5024248;28;20044;-74
2024/02/03 09:13:07;;;;;;;22.25;9.55;;;11.10;94.70;;;;;;5024871;28;20624;-74
2024/02/03 09:15:33;;;;;;;17.25;7.65;;;11.10;94.70;;;;;;5035160;28;20040;-74
2024/02/03 09:17:58;;;;;;;14.95;7.00;;;11.20;94.70;;;;;;5037294;28;20250;-74
2024/02/03 09:20:24;;;;;;;19.08;8.07;;;11.20;94.60;;;;;;5037172;28;20425;-74
2024/02/03 09:22:49;;;;;;;15.27;6.38;;;11.10;94.50;;;;;;5035667;28;20029;-74
2024/02/03 09:25:15;;;;;;;18.48;7.75;;;11.10;94.60;;;;;;5028868;28;20037;-73
2024/02/03 09:27:41;;;;;;;18.42;6.60;;;11.10;94.60;;;;;;5031724;28;20029;-74
2024/02/03 09:30:07;;;;;;;20.65;9.25;;;11.10;94.70;;;;;;5037864;28;20067;-74
2024/02/03 09:32:33;;;;;;;19.85;7.13;;;11.10;94.90;;;;;;5034178;28;20846;-75
2024/02/03 09:34:58;;;;;;;18.58;6.78;;;11.10;94.90;;;;;;5031378;28;20036;-75
2024/02/03 09:37:24;;;;;;;14.15;5.63;;;11.10;95.00;;;;;;5033579;28;20025;-75
2024/02/03 09:39:49;;;;;;;14.48;5.53;;;11.10;95.00;;;;;;5033925;28;20040;-76
2024/02/03 09:42:16;;;;;;;11.85;5.28;;;11.10;94.90;;;;;;5035435;28;20030;-74
2024/02/03 09:44:44;;;;;;;15.55;5.70;;;11.10;94.90;;;;;;5037713;28;20139;-73
2024/02/03 09:47:13;;;;;;;14.20;5.35;;;11.10;94.90;;;;;;5031330;28;20033;-73
2024/02/03 09:49:39;;;;;;;13.63;5.07;;;11.10;95.00;;;;;;5036823;28;20478;-74
2024/02/03 09:52:06;;;;;;;14.90;5.82;;;11.10;95.00;;;;;;5029322;28;21558;-73
2024/02/03 09:54:32;;;;;;;10.50;4.72;;;11.20;94.90;;;;;;5034364;28;20127;-73
2024/02/03 09:56:59;;;;;;;11.50;5.63;;;11.10;95.00;;;;;;5036909;28;20093;-74
2024/02/03 09:59:25;;;;;;;14.35;6.18;;;11.20;95.10;;;;;;5031203;28;20037;-74
2024/02/03 10:01:51;;;;;;;10.45;5.25;;;11.20;95.10;;;;;;5030793;28;20017;-74
2024/02/03 10:04:17;;;;;;;10.45;5.53;;;11.30;95.00;;;;;;5034106;28;20029;-74
2024/02/03 10:06:47;;;;;;;13.27;5.38;;;11.30;94.90;;;;;;5032844;28;20374;-74
2024/02/03 10:09:25;;;;;;;12.38;6.07;;;11.30;95.00;;;;;;5043435;28;20446;-74
2024/02/03 10:11:51;;;;;;;13.43;6.72;;;11.30;95.10;;;;;;5030670;28;20350;-74
2024/02/03 10:14:20;;;;;;;14.07;6.97;;;11.20;95.40;;;;;;5027870;28;20111;-74
2024/02/03 10:16:49;;;;;;;14.30;6.50;;;11.30;95.30;;;;;;5029797;28;20032;-74
2024/02/03 10:19:14;;;;;;;17.63;6.75;;;11.30;95.30;;;;;;5026282;28;20071;-74
2024/02/03 10:21:40;;;;;;;14.07;7.10;;;11.30;95.30;;;;;;5025183;28;20100;-74
2024/02/03 10:24:06;;;;;;;16.15;7.25;;;11.40;95.30;;;;;;5029878;28;20052;-74
2024/02/03 10:26:32;;;;;;;14.57;7.00;;;11.50;95.30;;;;;;5034970;28;20013;-74
2024/02/03 10:28:57;;;;;;;12.00;7.00;;;11.50;95.30;;;;;;5025456;28;20077;-74
2024/02/03 10:31:23;;;;;;;13.80;6.97;;;11.50;95.30;;;;;;5028640;28;20612;-74
2024/02/03 10:33:49;;;;;;;14.13;6.53;;;11.50;95.10;;;;;;5024952;28;20021;-74
2024/02/03 10:36:15;;;;;;;14.32;6.55;;;11.60;95.20;;;;;;5031903;28;20037;-74
2024/02/03 10:38:41;;;;;;;15.60;6.47;;;11.60;94.90;;;;;;5031455;28;20040;-74
2024/02/03 10:41:10;;;;;;;16.98;6.60;;;11.50;95.10;;;;;;5038068;28;20088;-73
2024/02/03 10:43:37;;;;;;;15.52;6.03;;;11.60;95.10;;;;;;5027030;28;20036;-75
2024/02/03 10:46:08;;;;;;;13.18;6.68;;;11.60;95.00;;;;;;5028764;28;20489;-74
2024/02/03 10:48:37;;;;;;;14.90;7.82;;;11.60;94.70;;;;;;5022710;28;20495;-75
2024/02/03 10:51:07;;;;;;;15.32;9.02;;;11.60;94.50;;;;;;5032914;28;20592;-74
2024/02/03 10:53:40;;;;;;;16.52;8.85;;;11.70;94.50;;;;;;5031756;28;20031;-75
2024/02/03 10:56:10;;;;;;;15.05;8.00;;;11.70;94.30;;;;;;5028704;28;20336;-75
2024/02/03 10:58:39;;;;;;;23.17;7.90;;;11.70;94.20;;;;;;5027088;28;20033;-75
2024/02/03 11:01:20;;;;;;;17.20;7.40;;;11.60;94.10;;;;;;5030092;28;20025;-75
2024/02/03 11:03:50;;;;;;;16.00;8.27;;;11.70;94.10;;;;;;5020946;28;20005;-74
2024/02/03 11:06:32;;;;;;;20.60;8.85;;;11.70;94.00;;;;;;5028028;28;20028;-73
2024/02/03 11:09:12;;;;;;;16.75;7.55;;;11.70;94.00;;;;;;5026995;28;20033;-74
2024/02/03 11:11:48;;;;;;;12.68;7.55;;;11.80;93.90;;;;;;5037556;28;20029;-74
2024/02/03 11:14:21;;;;;;;16.65;7.25;;;11.80;93.90;;;;;;5024629;28;20125;-74
2024/02/03 11:17:04;;;;;;;17.13;7.68;;;11.70;93.70;;;;;;5035138;28;20044;-74
2024/02/03 11:19:34;;;;;;;17.50;7.53;;;11.70;93.80;;;;;;5025157;28;20298;-74
2024/02/03 11:22:01;;;;;;;19.05;7.07;;;11.70;93.90;;;;;;5027226;28;20032;-74
2024/02/03 11:24:27;;;;;;;16.65;7.03;;;11.80;93.80;;;;;;5035155;28;20037;-74
2024/02/03 11:27:03;;;;;;;18.70;6.68;;;11.70;93.80;;;;;;5024026;28;20489;-75
2024/02/03 11:29:29;;;;;;;19.83;6.60;;;11.70;93.90;;;;;;5029136;28;20037;-74
2024/02/03 11:32:10;;;;;;;15.18;7.18;;;11.80;93.90;;;;;;5022443;28;20328;-74
2024/02/03 11:34:37;;;;;;;16.40;7.57;;;11.90;93.80;;;;;;5027069;28;20453;-76
2024/02/03 11:37:04;;;;;;;21.60;7.82;;;11.90;93.70;;;;;;5030796;28;20504;-75
2024/02/03 11:39:32;;;;;;;17.02;6.55;;;12.00;93.60;;;;;;5029132;28;20552;-74
2024/02/03 11:41:58;;;;;;;16.33;6.30;;;12.10;93.30;;;;;;5035229;28;20044;-74
2024/02/03 11:44:31;;;;;;;21.23;6.90;;;12.10;93.00;;;;;;5038880;28;20100;-74
2024/02/03 11:46:57;;;;;;;16.92;6.50;;;12.10;93.10;;;;;;5026267;28;20017;-74
2024/02/03 11:49:23;;;;;;;20.35;6.80;;;12.20;92.90;;;;;;5024518;28;20033;-74
2024/02/03 11:51:48;;;;;;;15.75;6.20;;;12.10;92.70;;;;;;5034433;28;20309;-74
2024/02/03 11:54:14;;;;;;;19.95;7.05;;;12.20;92.80;;;;;;5035259;28;20365;-74
2024/02/03 11:56:41;;;;;;;14.18;5.10;;;12.20;92.60;;;;;;5033775;28;20025;-74
2024/02/03 11:59:09;;;;;;;16.02;6.95;;;12.30;92.60;;;;;;5027064;28;20373;-72
2024/02/03 12:01:38;;;;;;;15.60;6.15;;;12.30;92.40;;;;;;5031355;28;20476;-75
2024/02/03 12:04:03;;;;;;;16.92;5.95;;;12.30;92.30;;;;;;5031047;28;20061;-73
2024/02/03 12:06:29;;;;;;;15.50;6.60;;;12.30;92.30;;;;;;5027631;28;20088;-74
2024/02/03 12:08:55;;;;;;;17.65;6.70;;;12.30;92.00;;;;;;5043258;28;20350;-74
2024/02/03 12:11:20;;;;;;;15.68;6.50;;;12.40;91.90;;;;;;5028867;28;20053;-73
2024/02/03 12:13:47;;;;;;;13.35;6.25;;;12.40;91.90;;;;;;5032051;28;20021;-74
2024/02/03 12:16:13;;;;;;;18.70;7.05;;;12.40;91.90;;;;;;5035905;28;20131;-75
2024/02/03 12:18:39;;;;;;;17.38;6.28;;;12.20;92.00;;;;;;5025202;28;20476;-74
2024/02/03 12:21:08;;;;;;;18.75;6.50;;;12.30;92.20;;;;;;5026010;28;20079;-74
2024/02/03 12:23:33;;;;;;;17.48;6.72;;;12.30;92.10;;;;;;5022265;28;20047;-74
2024/02/03 12:25:59;;;;;;;21.30;7.47;;;12.30;92.10;;;;;;5030541;28;20517;-74
2024/02/03 12:28:25;;;;;;;18.92;7.80;;;12.30;92.10;;;;;;5029302;28;20116;-74
2024/02/03 12:30:58;;;;;;;21.17;7.82;;;12.20;92.20;;;;;;5034751;28;20140;-74